Time;durP1;ratioP1;P1;durP2;ratioP2;P2;SDS_P1;SDS_P2;PMS_P1;PMS_P2;Temp;Humidity;BMP_temperature;BMP_pressure;BME280_temperature;BME280_humidity;BME280_pressure;Samples;Min_cycle;Max_cycle;Signal;HPM_P1;HPM_P2
2023/11/04 00:01:15;;;;;;;1999.90;999.90;;;;;;;;;;5053150;28;20050;-91
2023/11/04 00:03:42;;;;;;;1999.90;999.90;;;;;;;;;;5067483;28;20064;-88
2023/11/04 00:06:09;;;;;;;1999.90;999.90;;;;;;;;;;5046862;28;20046;-89
2023/11/04 00:08:36;;;;;;;1999.90;999.90;;;;;;;;;;5055567;28;20081;-90
2023/11/04 00:11:03;;;;;;;1999.90;999.90;;;;;;;;;;5061970;28;20301;-91
2023/11/04 00:13:30;;;;;;;1999.90;999.90;;;;;;;;;;5066603;28;20041;-92
2023/11/04 00:16:03;;;;;;;1999.90;999.90;;;;;;;;;;5063450;28;20033;-92
2023/11/04 00:18:29;;;;;;;1999.90;999.90;;;;;;;;;;5054854;28;20045;-90
2023/11/04 00:20:56;;;;;;;1999.90;999.90;;;;;;;;;;5062203;28;20057;-90
2023/11/04 00:23:23;;;;;;;1999.90;999.90;;;;;;;;;;5054351;28;20068;-90
2023/11/04 00:25:51;;;;;;;1999.90;999.90;;;;;;;;;;5055338;28;20059;-88
2023/11/04 00:28:19;;;;;;;1999.90;999.90;;;;;;;;;;5059324;28;20037;-91
2023/11/04 00:30:45;;;;;;;1999.90;999.90;;;;;;;;;;5060582;28;20045;-91
2023/11/04 00:33:14;;;;;;;1999.90;999.90;;;;;;;;;;5066989;28;20097;-89
2023/11/04 00:35:41;;;;;;;1999.90;999.90;;;;;;;;;;5056891;28;20045;-88
2023/11/04 00:38:08;;;;;;;1999.90;999.90;;;;;;;;;;5052065;28;20059;-92
2023/11/04 00:40:35;;;;;;;1999.90;999.90;;;;;;;;;;5058865;28;20052;-90
2023/11/04 00:43:12;;;;;;;1999.90;999.90;;;;;;;;;;5060017;28;20037;-89
2023/11/04 00:45:39;;;;;;;1999.90;999.90;;;;;;;;;;5059232;28;20125;-88
2023/11/04 00:48:07;;;;;;;1999.90;999.90;;;;;;;;;;5061870;28;20053;-91
2023/11/04 00:50:36;;;;;;;1999.90;999.90;;;;;;;;;;5058426;28;20050;-90
2023/11/04 00:53:04;;;;;;;1999.90;999.90;;;;;;;;;;5064096;28;20049;-90
2023/11/04 00:55:30;;;;;;;1999.90;999.90;;;;;;;;;;5049949;28;20131;-89
2023/11/04 00:57:57;;;;;;;1999.90;999.90;;;;;;;;;;5043807;28;20055;-91
2023/11/04 01:00:26;;;;;;;1999.90;999.90;;;;;;;;;;5043803;28;20056;-91
2023/11/04 01:02:54;;;;;;;1999.90;999.90;;;;;;;;;;5043277;28;20136;-91
2023/11/04 01:05:20;;;;;;;1999.90;999.90;;;;;;;;;;5041087;28;20080;-93
2023/11/04 01:07:48;;;;;;;1999.90;999.90;;;;;;;;;;5038605;28;20056;-92
2023/11/04 01:10:15;;;;;;;1999.90;999.90;;;;;;;;;;5040191;28;20413;-91
2023/11/04 01:12:42;;;;;;;1999.90;999.90;;;;;;;;;;5041423;28;20060;-89
2023/11/04 01:15:09;;;;;;;1999.90;999.90;;;;;;;;;;5038800;28;20053;-90
2023/11/04 01:17:36;;;;;;;1999.90;999.90;;;;;;;;;;5039038;28;20497;-89
2023/11/04 01:20:02;;;;;;;1999.90;999.90;;;;;;;;;;5037249;28;20045;-89
2023/11/04 01:22:29;;;;;;;1999.90;999.90;;;;;;;;;;5043405;28;20132;-90
2023/11/04 01:24:57;;;;;;;1999.90;999.90;;;;;;;;;;5042683;28;20045;-91
2023/11/04 01:27:23;;;;;;;1999.90;999.90;;;;;;;;;;5043750;28;20058;-91
2023/11/04 01:29:50;;;;;;;1999.90;999.90;;;;;;;;;;5040262;28;20497;-89
2023/11/04 01:32:17;;;;;;;1999.90;999.90;;;;;;;;;;5039007;28;20482;-89
2023/11/04 01:34:43;;;;;;;1999.90;999.90;;;;;;;;;;5033611;28;20048;-89
2023/11/04 01:37:10;;;;;;;1999.90;999.90;;;;;;;;;;5036539;28;20042;-89
2023/11/04 01:39:37;;;;;;;1999.90;999.90;;;;;;;;;;5037816;28;20460;-89
2023/11/04 01:42:08;;;;;;;1999.90;999.90;;;;;;;;;;5042423;28;20073;-89
2023/11/04 01:44:34;;;;;;;1999.90;999.90;;;;;;;;;;5040158;28;20073;-90
2023/11/04 01:47:01;;;;;;;1999.90;999.90;;;;;;;;;;5035028;28;20049;-90
2023/11/04 01:49:28;;;;;;;1999.90;999.90;;;;;;;;;;5037106;28;20059;-90
2023/11/04 01:51:55;;;;;;;1999.90;999.90;;;;;;;;;;5041653;28;20136;-90
2023/11/04 01:54:23;;;;;;;1999.90;999.90;;;;;;;;;;5037210;28;20053;-90
2023/11/04 01:56:49;;;;;;;1999.90;999.90;;;;;;;;;;5037575;28;20544;-90
2023/11/04 01:59:17;;;;;;;1999.90;999.90;;;;;;;;;;5033845;28;20049;-88
2023/11/04 02:01:45;;;;;;;1999.90;999.90;;;;;;;;;;5030460;28;20132;-90
2023/11/04 02:04:12;;;;;;;1999.90;999.90;;;;;;;;;;5036141;28;20139;-90
2023/11/04 02:06:39;;;;;;;1999.90;999.90;;;;;;;;;;5035007;28;20045;-90
2023/11/04 02:09:06;;;;;;;1999.90;999.90;;;;;;;;;;5033917;28;20140;-90
2023/11/04 02:11:33;;;;;;;1999.90;999.90;;;;;;;;;;5035249;28;20053;-91
2023/11/04 02:13:59;;;;;;;1999.90;999.90;;;;;;;;;;5037080;28;20055;-91
2023/11/04 02:16:27;;;;;;;1999.90;999.90;;;;;;;;;;5035975;28;20486;-89
2023/11/04 02:18:54;;;;;;;1999.90;999.90;;;;;;;;;;5036822;28;20045;-90
2023/11/04 02:21:22;;;;;;;1999.90;999.90;;;;;;;;;;5028917;28;20489;-88
2023/11/04 02:23:48;;;;;;;1999.90;999.90;;;;;;;;;;5030432;28;20053;-88
2023/11/04 02:26:15;;;;;;;1999.90;999.90;;;;;;;;;;5037920;28;20466;-90
2023/11/04 02:28:41;;;;;;;1999.90;999.90;;;;;;;;;;5036398;28;20485;-90
2023/11/04 02:31:08;;;;;;;1999.90;999.90;;;;;;;;;;5036184;28;20048;-90
2023/11/04 02:33:35;;;;;;;1999.90;999.90;;;;;;;;;;5034074;28;20451;-90
2023/11/04 02:36:01;;;;;;;1999.90;999.90;;;;;;;;;;5034870;28;20056;-92
2023/11/04 02:38:29;;;;;;;1999.90;999.90;;;;;;;;;;5037072;28;20057;-91
2023/11/04 02:40:56;;;;;;;1999.90;999.90;;;;;;;;;;5035598;28;20493;-90
2023/11/04 02:43:22;;;;;;;1999.90;999.90;;;;;;;;;;5033922;28;20050;-91
2023/11/04 02:45:49;;;;;;;1999.90;999.90;;;;;;;;;;5033780;28;20053;-91
2023/11/04 02:48:15;;;;;;;1999.90;999.90;;;;;;;;;;5037289;28;20107;-91
2023/11/04 02:50:42;;;;;;;1999.90;999.90;;;;;;;;;;5035825;28;20065;-91
2023/11/04 02:53:08;;;;;;;1999.90;999.90;;;;;;;;;;5037539;28;20053;-92
2023/11/04 02:55:36;;;;;;;1999.90;999.90;;;;;;;;;;5038224;28;20049;-94
2023/11/04 02:58:03;;;;;;;1999.90;999.90;;;;;;;;;;5042497;28;20455;-94
2023/11/04 03:00:29;;;;;;;1999.90;999.90;;;;;;;;;;5040647;28;20058;-93
2023/11/04 03:02:56;;;;;;;1999.90;999.90;;;;;;;;;;5033991;28;20057;-94
2023/11/04 03:05:23;;;;;;;1999.90;999.90;;;;;;;;;;5035276;28;20049;-91
2023/11/04 03:07:50;;;;;;;1999.90;999.90;;;;;;;;;;5032772;28;20053;-92
2023/11/04 03:10:16;;;;;;;1999.90;999.90;;;;;;;;;;5038601;28;20052;-94
2023/11/04 03:12:44;;;;;;;1999.90;999.90;;;;;;;;;;5042532;28;20049;-93
2023/11/04 03:15:11;;;;;;;1999.90;999.90;;;;;;;;;;5035139;28;20064;-93
2023/11/04 03:17:38;;;;;;;1999.90;999.90;;;;;;;;;;5035319;28;20049;-94
2023/11/04 03:20:06;;;;;;;1999.90;999.90;;;;;;;;;;5033701;28;20450;-92
2023/11/04 03:22:33;;;;;;;1999.90;999.90;;;;;;;;;;5040873;28;20061;-92
2023/11/04 03:24:59;;;;;;;1999.90;999.90;;;;;;;;;;5043447;28;20061;-89
2023/11/04 03:27:26;;;;;;;1999.90;999.90;;;;;;;;;;5040766;28;20409;-90
2023/11/04 03:29:54;;;;;;;1999.90;999.90;;;;;;;;;;5039473;28;20057;-89
2023/11/04 03:32:20;;;;;;;1999.90;999.90;;;;;;;;;;5039034;28;20045;-90
2023/11/04 03:34:47;;;;;;;1999.90;999.90;;;;;;;;;;5039068;28;20119;-93
2023/11/04 03:37:13;;;;;;;1999.90;999.90;;;;;;;;;;5036708;28;20075;-91
2023/11/04 03:39:40;;;;;;;1999.90;999.90;;;;;;;;;;5039646;28;20519;-91
2023/11/04 03:42:07;;;;;;;1999.90;999.90;;;;;;;;;;5034349;28;20049;-92
2023/11/04 03:44:33;;;;;;;1999.90;999.90;;;;;;;;;;5035359;28;20212;-92
2023/11/04 03:47:01;;;;;;;1999.90;999.90;;;;;;;;;;5034258;28;20042;-91
2023/11/04 03:49:28;;;;;;;1999.90;999.90;;;;;;;;;;5038069;28;20045;-90
2023/11/04 03:51:56;;;;;;;1999.90;999.90;;;;;;;;;;5034267;28;20060;-91
2023/11/04 03:54:23;;;;;;;1999.90;999.90;;;;;;;;;;5037941;28;20549;-91
2023/11/04 03:56:49;;;;;;;1999.90;999.90;;;;;;;;;;5038211;28;20065;-92
2023/11/04 03:59:16;;;;;;;1999.90;999.90;;;;;;;;;;5037083;28;20045;-90
2023/11/04 04:01:42;;;;;;;1999.90;999.90;;;;;;;;;;5037821;28;20071;-89
2023/11/04 04:04:10;;;;;;;1999.90;999.90;;;;;;;;;;5035323;28;20406;-91
2023/11/04 04:06:37;;;;;;;1999.90;999.90;;;;;;;;;;5036543;28;20077;-92
2023/11/04 04:09:04;;;;;;;1999.90;999.90;;;;;;;;;;5038694;28;20056;-91
2023/11/04 04:11:30;;;;;;;1999.90;999.90;;;;;;;;;;5035741;28;20044;-92
2023/11/04 04:13:58;;;;;;;1999.90;999.90;;;;;;;;;;5031018;28;20515;-91
2023/11/04 04:16:24;;;;;;;1999.90;999.90;;;;;;;;;;5037559;28;20060;-90
2023/11/04 04:18:53;;;;;;;1999.90;999.90;;;;;;;;;;5033102;28;20501;-93
2023/11/04 04:21:21;;;;;;;1999.90;999.90;;;;;;;;;;5031997;28;20541;-92
2023/11/04 04:23:47;;;;;;;1999.90;999.90;;;;;;;;;;5037130;28;20456;-92
2023/11/04 04:26:21;;;;;;;1999.90;999.90;;;;;;;;;;5039750;28;20555;-93
2023/11/04 04:28:47;;;;;;;1999.90;999.90;;;;;;;;;;5031577;28;20057;-90
2023/11/04 04:31:14;;;;;;;1999.90;999.90;;;;;;;;;;5030720;28;20049;-90
2023/11/04 04:33:41;;;;;;;1999.90;999.90;;;;;;;;;;5035129;28;20054;-90
2023/11/04 04:36:08;;;;;;;1999.90;999.90;;;;;;;;;;5041047;28;20053;-89
2023/11/04 04:38:36;;;;;;;1999.90;999.90;;;;;;;;;;5036040;28;20041;-90
2023/11/04 04:41:03;;;;;;;1999.90;999.90;;;;;;;;;;5038357;28;20069;-91
2023/11/04 04:43:30;;;;;;;1999.90;999.90;;;;;;;;;;5029672;28;20041;-89
2023/11/04 04:45:56;;;;;;;1999.90;999.90;;;;;;;;;;5028879;28;20431;-90
2023/11/04 04:48:23;;;;;;;1999.90;999.90;;;;;;;;;;5037568;28;20049;-89
2023/11/04 04:50:50;;;;;;;1999.90;999.90;;;;;;;;;;5036664;28;20044;-90
2023/11/04 04:53:16;;;;;;;1999.90;999.90;;;;;;;;;;5038054;28;20059;-90
2023/11/04 04:55:44;;;;;;;1999.90;999.90;;;;;;;;;;5035487;28;20053;-90
2023/11/04 04:58:11;;;;;;;1999.90;999.90;;;;;;;;;;5030725;28;20054;-88
2023/11/04 05:00:37;;;;;;;1999.90;999.90;;;;;;;;;;5030897;28;20561;-90
2023/11/04 05:03:05;;;;;;;1999.90;999.90;;;;;;;;;;5033936;28;20504;-89
2023/11/04 05:05:31;;;;;;;1999.90;999.90;;;;;;;;;;5034090;28;20054;-88
2023/11/04 05:07:58;;;;;;;1999.90;999.90;;;;;;;;;;5035335;28;20059;-90
2023/11/04 05:10:25;;;;;;;1999.90;999.90;;;;;;;;;;5037246;28;20053;-90
2023/11/04 05:12:53;;;;;;;1999.90;999.90;;;;;;;;;;5037593;28;20049;-89
2023/11/04 05:15:20;;;;;;;1999.90;999.90;;;;;;;;;;5034744;28;20053;-89
2023/11/04 05:17:48;;;;;;;1999.90;999.90;;;;;;;;;;5035345;28;20064;-90
2023/11/04 05:20:15;;;;;;;1999.90;999.90;;;;;;;;;;5034988;28;20136;-88
2023/11/04 05:22:41;;;;;;;1999.90;999.90;;;;;;;;;;5037996;28;20065;-91
2023/11/04 05:25:08;;;;;;;1999.90;999.90;;;;;;;;;;5036323;28;20060;-87
2023/11/04 05:27:35;;;;;;;1999.90;999.90;;;;;;;;;;5035579;28;20053;-88
2023/11/04 05:30:05;;;;;;;1999.90;999.90;;;;;;;;;;5035133;28;20060;-91
2023/11/04 05:32:33;;;;;;;1999.90;999.90;;;;;;;;;;5034254;28;20049;-88
2023/11/04 05:34:59;;;;;;;1999.90;999.90;;;;;;;;;;5037169;28;20450;-91
2023/11/04 05:37:26;;;;;;;1999.90;999.90;;;;;;;;;;5035973;28;20045;-92
2023/11/04 05:39:52;;;;;;;1999.90;999.90;;;;;;;;;;5038232;28;20048;-89
2023/11/04 05:42:20;;;;;;;1999.90;999.90;;;;;;;;;;5037260;28;20484;-89
2023/11/04 05:44:47;;;;;;;1999.90;999.90;;;;;;;;;;5037065;28;20055;-88
2023/11/04 05:47:16;;;;;;;1999.90;999.90;;;;;;;;;;5039405;28;20041;-90
2023/11/04 05:49:42;;;;;;;1999.90;999.90;;;;;;;;;;5038531;28;20058;-87
2023/11/04 05:52:09;;;;;;;1999.90;999.90;;;;;;;;;;5035408;28;20048;-88
2023/11/04 05:54:35;;;;;;;1999.90;999.90;;;;;;;;;;5036783;28;20502;-90
2023/11/04 05:57:02;;;;;;;1999.90;999.90;;;;;;;;;;5035351;28;20057;-90
2023/11/04 05:59:28;;;;;;;1999.90;999.90;;;;;;;;;;5040170;28;20050;-89
2023/11/04 06:01:55;;;;;;;1999.90;999.90;;;;;;;;;;5037738;28;20550;-90
2023/11/04 06:04:23;;;;;;;1999.90;999.90;;;;;;;;;;5037628;28;20051;-90
2023/11/04 06:06:49;;;;;;;1999.90;999.90;;;;;;;;;;5040016;28;20049;-91
2023/11/04 06:09:16;;;;;;;1999.90;999.90;;;;;;;;;;5035924;28;20064;-89
2023/11/04 06:11:43;;;;;;;1999.90;999.90;;;;;;;;;;5036020;28;20405;-89
2023/11/04 06:14:10;;;;;;;1999.90;999.90;;;;;;;;;;5034464;28;20046;-90
2023/11/04 06:16:36;;;;;;;1999.90;999.90;;;;;;;;;;5039957;28;20045;-88
2023/11/04 06:19:03;;;;;;;1999.90;999.90;;;;;;;;;;5037665;28;20056;-90
2023/11/04 06:21:31;;;;;;;1999.90;999.90;;;;;;;;;;5040140;28;20500;-87
2023/11/04 06:23:57;;;;;;;1999.90;999.90;;;;;;;;;;5042101;28;20053;-89
2023/11/04 06:26:24;;;;;;;1999.90;999.90;;;;;;;;;;5036338;28;20132;-88
2023/11/04 06:28:50;;;;;;;1999.90;999.90;;;;;;;;;;5034340;28;20479;-91
2023/11/04 06:31:21;;;;;;;1999.90;999.90;;;;;;;;;;5037800;28;20410;-91
2023/11/04 06:33:47;;;;;;;1999.90;999.90;;;;;;;;;;5037761;28;20058;-90
2023/11/04 06:36:14;;;;;;;1999.90;999.90;;;;;;;;;;5041209;28;20060;-88
2023/11/04 06:38:42;;;;;;;1999.90;999.90;;;;;;;;;;5039495;28;20049;-90
2023/11/04 06:41:13;;;;;;;1999.90;999.90;;;;;;;;;;5034978;28;20421;-90
2023/11/04 06:43:40;;;;;;;1999.90;999.90;;;;;;;;;;5035209;28;20107;-89
2023/11/04 06:46:09;;;;;;;1999.90;999.90;;;;;;;;;;5035685;28;20061;-90
2023/11/04 06:48:36;;;;;;;1999.90;999.90;;;;;;;;;;5040371;28;20424;-89
2023/11/04 06:51:03;;;;;;;1999.90;999.90;;;;;;;;;;5037968;28;20045;-90
2023/11/04 06:53:29;;;;;;;1999.90;999.90;;;;;;;;;;5038036;28;20495;-92
2023/11/04 06:55:58;;;;;;;1999.90;999.90;;;;;;;;;;5033388;28;20057;-90
2023/11/04 06:58:27;;;;;;;1999.90;999.90;;;;;;;;;;5036821;28;20049;-89
2023/11/04 07:00:53;;;;;;;1999.90;999.90;;;;;;;;;;5040678;28;20143;-89
2023/11/04 07:03:20;;;;;;;1999.90;999.90;;;;;;;;;;5034840;28;20053;-90
2023/11/04 07:05:46;;;;;;;1999.90;999.90;;;;;;;;;;5037843;28;20482;-91
2023/11/04 07:08:14;;;;;;;1999.90;999.90;;;;;;;;;;5037857;28;20049;-88
2023/11/04 07:10:40;;;;;;;1999.90;999.90;;;;;;;;;;5038586;28;20100;-89
2023/11/04 07:13:11;;;;;;;1999.90;999.90;;;;;;;;;;5032719;28;20050;-89
2023/11/04 07:15:39;;;;;;;1999.90;999.90;;;;;;;;;;5032511;28;20076;-89
2023/11/04 07:18:07;;;;;;;1999.90;999.90;;;;;;;;;;5035308;28;20133;-89
2023/11/04 07:20:34;;;;;;;1999.90;999.90;;;;;;;;;;5032476;28;20081;-89
2023/11/04 07:23:01;;;;;;;1999.90;999.90;;;;;;;;;;5036085;28;20600;-88
2023/11/04 07:25:27;;;;;;;1999.90;999.90;;;;;;;;;;5035283;28;20045;-88
2023/11/04 07:27:54;;;;;;;1999.90;999.90;;;;;;;;;;5039675;28;20060;-88
2023/11/04 07:30:22;;;;;;;1999.90;999.90;;;;;;;;;;5036411;28;20049;-90
2023/11/04 07:32:48;;;;;;;1999.90;999.90;;;;;;;;;;5039846;28;20372;-88
2023/11/04 07:35:15;;;;;;;1999.90;999.90;;;;;;;;;;5037753;28;20048;-89
2023/11/04 07:37:41;;;;;;;1999.90;999.90;;;;;;;;;;5043535;28;20434;-90
2023/11/04 07:40:09;;;;;;;1999.90;999.90;;;;;;;;;;5043049;28;20045;-88
2023/11/04 07:42:36;;;;;;;1999.90;999.90;;;;;;;;;;5039321;28;20422;-89
2023/11/04 07:45:02;;;;;;;1999.90;999.90;;;;;;;;;;5034712;28;20053;-90
2023/11/04 07:47:30;;;;;;;1999.90;999.90;;;;;;;;;;5037134;28;20041;-88
2023/11/04 07:49:57;;;;;;;1999.90;999.90;;;;;;;;;;5041649;28;20065;-89
2023/11/04 07:52:23;;;;;;;1999.90;999.90;;;;;;;;;;5040764;28;20038;-89
2023/11/04 07:54:50;;;;;;;1999.90;999.90;;;;;;;;;;5033285;28;20041;-91
2023/11/04 07:57:16;;;;;;;1999.90;999.90;;;;;;;;;;5032620;28;20049;-88
2023/11/04 07:59:43;;;;;;;1999.90;999.90;;;;;;;;;;5034836;28;20052;-88
2023/11/04 08:02:09;;;;;;;1999.90;999.90;;;;;;;;;;5032545;28;20513;-90
2023/11/04 08:04:39;;;;;;;1999.90;999.90;;;;;;;;;;5031196;28;20056;-89
2023/11/04 08:07:06;;;;;;;1999.90;999.90;;;;;;;;;;5042632;28;20049;-90
2023/11/04 08:09:33;;;;;;;1999.90;999.90;;;;;;;;;;5039654;28;20046;-89
2023/11/04 08:11:59;;;;;;;1999.90;999.90;;;;;;;;;;5032206;28;20053;-94
2023/11/04 08:14:26;;;;;;;1999.90;999.90;;;;;;;;;;5029154;28;20053;-88
2023/11/04 08:16:53;;;;;;;1999.90;999.90;;;;;;;;;;5033036;28;20115;-87
2023/11/04 08:19:19;;;;;;;1999.90;999.90;;;;;;;;;;5037011;28;20228;-89
2023/11/04 08:21:50;;;;;;;1999.90;999.90;;;;;;;;;;5039798;28;20072;-89
2023/11/04 08:24:16;;;;;;;1999.90;999.90;;;;;;;;;;5034162;28;20056;-88
2023/11/04 08:26:43;;;;;;;1999.90;999.90;;;;;;;;;;5036206;28;20045;-88
2023/11/04 08:29:09;;;;;;;1999.90;999.90;;;;;;;;;;5040052;28;20053;-88
2023/11/04 08:31:36;;;;;;;1999.90;999.90;;;;;;;;;;5031812;28;20054;-89
2023/11/04 08:34:03;;;;;;;1999.90;999.90;;;;;;;;;;5039658;28;20049;-92
2023/11/04 08:36:29;;;;;;;1999.90;999.90;;;;;;;;;;5037733;28;20046;-89
2023/11/04 08:38:57;;;;;;;1999.90;999.90;;;;;;;;;;5034838;28;20054;-87
2023/11/04 08:41:24;;;;;;;1999.90;999.90;;;;;;;;;;5031049;28;20037;-88
2023/11/04 08:43:50;;;;;;;1999.90;999.90;;;;;;;;;;5036661;28;20055;-90
2023/11/04 08:46:18;;;;;;;1999.90;999.90;;;;;;;;;;5041694;28;20052;-89
2023/11/04 08:48:45;;;;;;;1999.90;999.90;;;;;;;;;;5038873;28;20500;-88
2023/11/04 08:51:12;;;;;;;1999.90;999.90;;;;;;;;;;5044214;28;20060;-89
2023/11/04 08:53:38;;;;;;;1999.90;999.90;;;;;;;;;;5042118;28;20053;-91
2023/11/04 08:56:09;;;;;;;1999.90;999.90;;;;;;;;;;5038012;28;20092;-88
2023/11/04 08:58:35;;;;;;;1999.90;999.90;;;;;;;;;;5034859;28;20046;-90
2023/11/04 09:01:02;;;;;;;1999.90;999.90;;;;;;;;;;5037311;28;20060;-89
2023/11/04 09:03:29;;;;;;;1999.90;999.90;;;;;;;;;;5036186;28;20045;-89
2023/11/04 09:05:55;;;;;;;1999.90;999.90;;;;;;;;;;5034830;28;20068;-89
2023/11/04 09:08:22;;;;;;;1999.90;999.90;;;;;;;;;;5037093;28;20064;-88
2023/11/04 09:10:49;;;;;;;1999.90;999.90;;;;;;;;;;5034608;28;20383;-88
2023/11/04 09:13:17;;;;;;;1999.90;999.90;;;;;;;;;;5032366;28;20056;-88
2023/11/04 09:15:43;;;;;;;1999.90;999.90;;;;;;;;;;5031285;28;20514;-86
2023/11/04 09:18:10;;;;;;;1999.90;999.90;;;;;;;;;;5034847;28;20421;-86
2023/11/04 09:20:36;;;;;;;1999.90;999.90;;;;;;;;;;5042091;28;20195;-91
2023/11/04 09:23:03;;;;;;;1999.90;999.90;;;;;;;;;;5037106;28;20059;-84
2023/11/04 09:25:29;;;;;;;1999.90;999.90;;;;;;;;;;5036132;28;20136;-88
2023/11/04 09:27:56;;;;;;;1999.90;999.90;;;;;;;;;;5040216;28;20069;-87
2023/11/04 09:30:24;;;;;;;1999.90;999.90;;;;;;;;;;5036885;28;20049;-88
2023/11/04 09:32:50;;;;;;;1999.90;999.90;;;;;;;;;;5040845;28;20053;-91
2023/11/04 09:35:17;;;;;;;1999.90;999.90;;;;;;;;;;5045479;28;20045;-92
2023/11/04 09:37:44;;;;;;;1999.90;999.90;;;;;;;;;;5039478;28;20041;-89
2023/11/04 09:40:12;;;;;;;1999.90;999.90;;;;;;;;;;5040517;28;20060;-88
2023/11/04 09:42:38;;;;;;;1999.90;999.90;;;;;;;;;;5037367;28;20045;-88
2023/11/04 09:45:06;;;;;;;1999.90;999.90;;;;;;;;;;5040960;28;20267;-89
2023/11/04 09:47:34;;;;;;;1999.90;999.90;;;;;;;;;;5038801;28;20051;-91
2023/11/04 09:50:01;;;;;;;1999.90;999.90;;;;;;;;;;5038852;28;20160;-88
2023/11/04 09:52:27;;;;;;;1999.90;999.90;;;;;;;;;;5038526;28;20048;-90
2023/11/04 09:54:55;;;;;;;1999.90;999.90;;;;;;;;;;5036806;28;20412;-89
2023/11/04 09:57:23;;;;;;;1999.90;999.90;;;;;;;;;;5039685;28;20061;-90
2023/11/04 09:59:49;;;;;;;1999.90;999.90;;;;;;;;;;5044310;28;20041;-89
2023/11/04 10:02:16;;;;;;;1999.90;999.90;;;;;;;;;;5039601;28;20057;-87
2023/11/04 10:04:44;;;;;;;1999.90;999.90;;;;;;;;;;5036024;28;20161;-89
2023/11/04 10:07:11;;;;;;;1999.90;999.90;;;;;;;;;;5036696;28;20060;-95
2023/11/04 10:09:37;;;;;;;1999.90;999.90;;;;;;;;;;5041520;28;20405;-95
2023/11/04 10:12:04;;;;;;;1999.90;999.90;;;;;;;;;;5038454;28;20057;-92
2023/11/04 10:14:31;;;;;;;1999.90;999.90;;;;;;;;;;5033422;28;20049;-90
2023/11/04 10:16:58;;;;;;;1999.90;999.90;;;;;;;;;;5041596;28;20052;-90
2023/11/04 10:19:24;;;;;;;1999.90;999.90;;;;;;;;;;5042778;28;20056;-94
2023/11/04 10:21:53;;;;;;;1999.90;999.90;;;;;;;;;;5040014;28;20068;-89
2023/11/04 10:24:19;;;;;;;1999.90;999.90;;;;;;;;;;5039356;28;20053;-94
2023/11/04 10:26:46;;;;;;;1999.90;999.90;;;;;;;;;;5043110;28;20059;-90
2023/11/04 10:29:13;;;;;;;1999.90;999.90;;;;;;;;;;5038886;28;20045;-94
2023/11/04 10:31:41;;;;;;;1999.90;999.90;;;;;;;;;;5043088;28;20494;-88
2023/11/04 10:34:10;;;;;;;1999.90;999.90;;;;;;;;;;5045070;28;20140;-84
2023/11/04 10:36:38;;;;;;;1999.90;999.90;;;;;;;;;;5039604;28;20049;-93
2023/11/04 10:39:12;;;;;;;1999.90;999.90;;;;;;;;;;5039570;28;20154;-93
2023/11/04 10:41:43;;;;;;;1999.90;999.90;;;;;;;;;;5038688;28;20497;-94
2023/11/04 10:44:16;;;;;;;1999.90;999.90;;;;;;;;;;5042566;28;20058;-91
2023/11/04 10:46:50;;;;;;;1999.90;999.90;;;;;;;;;;5036473;28;20057;-93
2023/11/04 10:49:22;;;;;;;1999.90;999.90;;;;;;;;;;5035223;28;20045;-90
2023/11/04 10:51:53;;;;;;;1999.90;999.90;;;;;;;;;;5036035;28;20045;-91
2023/11/04 10:54:29;;;;;;;1999.90;999.90;;;;;;;;;;5037975;28;20116;-89
2023/11/04 10:57:04;;;;;;;1999.90;999.90;;;;;;;;;;5038648;28;20053;-92
2023/11/04 10:59:36;;;;;;;1999.90;999.90;;;;;;;;;;5036841;28;20129;-86
2023/11/04 11:02:03;;;;;;;1999.90;999.90;;;;;;;;;;5040364;28;20489;-91
2023/11/04 11:04:31;;;;;;;1999.90;999.90;;;;;;;;;;5037745;28;20049;-93
2023/11/04 11:07:00;;;;;;;1999.90;999.90;;;;;;;;;;5037603;28;20065;-89
2023/11/04 11:09:29;;;;;;;1999.90;999.90;;;;;;;;;;5035871;28;20490;-89
2023/11/04 11:12:01;;;;;;;1999.90;999.90;;;;;;;;;;5036856;28;20053;-93
2023/11/04 11:14:27;;;;;;;1999.90;999.90;;;;;;;;;;5038239;28;20520;-89
2023/11/04 11:17:01;;;;;;;1999.90;999.90;;;;;;;;;;5030078;28;20056;-94
2023/11/04 11:19:28;;;;;;;1999.90;999.90;;;;;;;;;;5037173;28;21063;-95
2023/11/04 11:21:55;;;;;;;1999.90;999.90;;;;;;;;;;5039995;28;20091;-90
2023/11/04 11:24:22;;;;;;;1999.90;999.90;;;;;;;;;;5038886;28;20063;-89
2023/11/04 11:26:51;;;;;;;1999.90;999.90;;;;;;;;;;5042555;28;20059;-96
2023/11/04 11:29:22;;;;;;;1999.90;999.90;;;;;;;;;;5038985;28;20049;-95
2023/11/04 11:32:03;;;;;;;1999.90;999.90;;;;;;;;;;5042880;28;20054;-95
2023/11/04 11:34:30;;;;;;;1999.90;999.90;;;;;;;;;;5044262;28;20475;-91
2023/11/04 11:36:56;;;;;;;1999.90;999.90;;;;;;;;;;5038975;28;20053;-93
2023/11/04 11:39:23;;;;;;;1999.90;999.90;;;;;;;;;;5039650;28;20053;-90
2023/11/04 11:41:51;;;;;;;1999.90;999.90;;;;;;;;;;5034709;28;20045;-94
2023/11/04 11:44:19;;;;;;;1999.90;999.90;;;;;;;;;;5043332;28;20049;-93
2023/11/04 11:46:45;;;;;;;1999.90;999.90;;;;;;;;;;5041193;28;20127;-89
2023/11/04 11:49:12;;;;;;;1999.90;999.90;;;;;;;;;;5038389;28;20401;-94
2023/11/04 11:51:40;;;;;;;1999.90;999.90;;;;;;;;;;5038971;28;20107;-96
2023/11/04 11:54:06;;;;;;;1999.90;999.90;;;;;;;;;;5048382;28;20065;-94
2023/11/04 11:56:33;;;;;;;1999.90;999.90;;;;;;;;;;5041911;28;20073;-92
2023/11/04 11:59:06;;;;;;;1999.90;999.90;;;;;;;;;;5040780;28;20056;-94
2023/11/04 12:01:33;;;;;;;1999.90;999.90;;;;;;;;;;5042339;28;20049;-91
2023/11/04 12:04:01;;;;;;;1999.90;999.90;;;;;;;;;;5038291;28;20065;-91
2023/11/04 12:06:28;;;;;;;1999.90;999.90;;;;;;;;;;5038865;28;20136;-94
2023/11/04 12:08:55;;;;;;;1999.90;999.90;;;;;;;;;;5039841;28;20060;-91
2023/11/04 12:11:22;;;;;;;1999.90;999.90;;;;;;;;;;5035777;28;20053;-94
2023/11/04 12:13:49;;;;;;;1999.90;999.90;;;;;;;;;;5028737;28;20071;-93
2023/11/04 12:16:17;;;;;;;1999.90;999.90;;;;;;;;;;5032360;28;20123;-90
2023/11/04 12:18:46;;;;;;;1999.90;999.90;;;;;;;;;;5040031;28;20041;-93
2023/11/04 12:21:13;;;;;;;1999.90;999.90;;;;;;;;;;5035818;28;20057;-94
2023/11/04 12:23:40;;;;;;;1999.90;999.90;;;;;;;;;;5036506;28;20044;-94
2023/11/04 12:26:06;;;;;;;1999.90;999.90;;;;;;;;;;5027962;28;20058;-93
2023/11/04 12:28:36;;;;;;;1999.90;999.90;;;;;;;;;;5036074;28;20056;-92
2023/11/04 12:31:03;;;;;;;1999.90;999.90;;;;;;;;;;5037260;28;20084;-95
2023/11/04 12:33:31;;;;;;;1999.90;999.90;;;;;;;;;;5043419;28;20041;-92
2023/11/04 12:35:59;;;;;;;1999.90;999.90;;;;;;;;;;5036080;28;20056;-94
2023/11/04 12:38:26;;;;;;;1999.90;999.90;;;;;;;;;;5034048;28;20049;-89
2023/11/04 12:40:53;;;;;;;1999.90;999.90;;;;;;;;;;5045765;28;20056;-95
2023/11/04 12:43:19;;;;;;;1999.90;999.90;;;;;;;;;;5048972;28;20044;-91
2023/11/04 12:45:47;;;;;;;1999.90;999.90;;;;;;;;;;5038190;28;20053;-90
2023/11/04 12:48:15;;;;;;;1999.90;999.90;;;;;;;;;;5036712;28;20049;-90
2023/11/04 12:50:43;;;;;;;1999.90;999.90;;;;;;;;;;5036585;28;20080;-93
2023/11/04 12:53:10;;;;;;;1999.90;999.90;;;;;;;;;;5043221;28;20059;-93
2023/11/04 12:55:37;;;;;;;1999.90;999.90;;;;;;;;;;5040909;28;20064;-92
2023/11/04 12:58:04;;;;;;;1999.90;999.90;;;;;;;;;;5043332;28;20056;-90
2023/11/04 13:00:31;;;;;;;1999.90;999.90;;;;;;;;;;5041935;28;20052;-93
2023/11/04 13:03:00;;;;;;;1999.90;999.90;;;;;;;;;;5050753;28;20087;-94
2023/11/04 13:05:27;;;;;;;1999.90;999.90;;;;;;;;;;5051806;28;20474;-96
2023/11/04 13:07:55;;;;;;;1999.90;999.90;;;;;;;;;;5052689;28;20052;-93
2023/11/04 13:10:22;;;;;;;1999.90;999.90;;;;;;;;;;5044700;28;20053;-96
2023/11/04 13:12:49;;;;;;;1999.90;999.90;;;;;;;;;;5043504;28;20057;-95
2023/11/04 13:15:15;;;;;;;1999.90;999.90;;;;;;;;;;5045527;28;20046;-93
2023/11/04 13:17:42;;;;;;;1999.90;999.90;;;;;;;;;;5044046;28;20050;-95
2023/11/04 13:20:10;;;;;;;1999.90;999.90;;;;;;;;;;5046833;28;20041;-95
2023/11/04 13:22:37;;;;;;;1999.90;999.90;;;;;;;;;;5051236;28;20518;-92
2023/11/04 13:25:07;;;;;;;1999.90;999.90;;;;;;;;;;5049765;28;20056;-95
2023/11/04 13:27:36;;;;;;;1999.90;999.90;;;;;;;;;;5042881;28;20057;-95
2023/11/04 13:30:03;;;;;;;1999.90;999.90;;;;;;;;;;5049916;28;20076;-89
2023/11/04 13:32:29;;;;;;;1999.90;999.90;;;;;;;;;;5048591;28;20053;-91
2023/11/04 13:34:56;;;;;;;1999.90;999.90;;;;;;;;;;5043929;28;20068;-87
2023/11/04 13:37:23;;;;;;;1999.90;999.90;;;;;;;;;;5059857;28;20056;-89
2023/11/04 13:39:49;;;;;;;1999.90;999.90;;;;;;;;;;5056382;22;20144;-84
2023/11/04 13:42:32;;;;;;;1999.90;999.90;;;;;;;;;;5038701;28;20053;-85